TNCCMPTO

Guest
Details From TNCC - Curacao Hato
To MPTO - Tocumen Intl
Flight Number -
Tags Generated
Created
Modified
Stats Distance 642 nm / 1,190 km
Max Altitude 0 ft / 0 m
Waypoints 4
Social Downloads 3
Likes 0
Share VATSIM

Download

Looking for another format? Having issues loading an existing format? Contact us
Advertisement - Login to hide

Notes

Generated

Route

TNCC EGOKU TUM22 MPTO

ID Type Via Altitude Latitude Longitude Leg Dist Tot Dist Heading (true) Name
O TNCC APT - 0 ft / 0 m 12.19211˚ -68.97514˚ - 0 nm - -
EGOKU FIX - 0 ft / 0 m 10.65222˚ -74.34944˚ 329 nm 329 nm 254° / 253° -
TUM22 FIX - 0 ft / 0 m 9.07896˚ -79.37524˚ 312 nm 641 nm 253° / 252° -
O MPTO APT - 0 ft / 0 m 9.07368˚ -79.38881˚ 0 nm 642 nm 249° / 249° -

Altitude Profile

Advertisement - Login to hide

Weather


0- 5 10 15 20 25 30 35+ Temperature / ° C

Clouds and Precipitation
Forecast for 2017-12-15 18:00 UTC. Updated an hour ago

Ground ~20,000 ft ~40,000 ft Winds

TNCC

Details ICAO TNCC (CUR)
Name Curacao Hato
Region Caribbean Netherlands, Aruba, Curaçao, Sint Maarten
Timezone Unknown (UTC+0.0)
Stats Elevation 29 ft / 9 m (AMSL)
Location 12.188853° -68.959803°
Runways 1
Magnetic Variation 11.331° W

METAR

TNCC 151600Z 11012KT 9999 BKN025 29/22 Q1015 NOSIG

Decode

TAF

Not found

Departure Runways

ID Width Length Bearing (true) Bearing (mag) Surface Threshold Offset Overrun Length
11 197 ft / 60 m 11,197 ft / 3,413 m 102.24° 113.57° Asphalt 300 ft / 91 m 0 ft / 0 m
29 197 ft / 60 m 11,197 ft / 3,413 m 282.24° 293.57° Asphalt 300 ft / 91 m 200 ft / 61 m

MPTO

Details ICAO MPTO (PTY)
Name Tocumen Intl
Region Panama
Timezone America/Panama (UTC-5.0)
Stats Elevation 135 ft / 41 m (AMSL)
Location 9.071364° -79.383458°
Runways 2
Magnetic Variation 4.532° W

METAR

MPTO 151600Z 12003KT 9999 SCT018 31/23 Q1011 NOSIG

Decode

TAF

TAF MPTO 151100Z 1512/1618 VRB02KT 9000 FEW020 TEMPO 1517/1521 33012KT 9999 SCT020

Decode

Destination Runways

ID Width Length Bearing (true) Bearing (mag) Surface Threshold Offset Overrun Length
03L 200 ft / 61 m 8,798 ft / 2,682 m 30.67° 35.20° Asphalt 0 ft / 0 m 0 ft / 0 m
03R 148 ft / 45 m 10,008 ft / 3,051 m 29.33° 33.86° Concrete 0 ft / 0 m 198 ft / 60 m
21L 148 ft / 45 m 10,008 ft / 3,051 m 209.33° 213.86° Concrete 0 ft / 0 m 198 ft / 60 m
21R 200 ft / 61 m 8,798 ft / 2,682 m 210.67° 215.20° Asphalt 0 ft / 0 m 0 ft / 0 m

Approach Navaids

Runway Type Ident Frequency Range Bearing (true) Bearing (mag) Slope Elevation
03R Localiser INAT 110.70 MHz 18 nm / 33 km 29.33° 33.86° - 50 ft / 15 m (AMSL)
03R Glidescope INAT 110.70 MHz 10 nm / 19 km 29.33° 33.86° 3.00° 50 ft / 15 m (AMSL)
03R DME INAT 110.70 MHz 18 nm / 33 km - - - 50 ft / 15 m (AMSL)

Popular Alternatives